createdAt,value
2017-05-11T00:00:06.673Z,18.78
2017-05-11T00:00:34.950Z,18.7
2017-05-11T00:01:03.348Z,18.63
2017-05-11T00:01:31.782Z,18.78
2017-05-11T00:02:00.023Z,18.78
2017-05-11T00:02:28.365Z,18.74
2017-05-11T00:03:39.651Z,18.75
2017-05-11T00:04:07.928Z,18.66
2017-05-11T00:04:36.241Z,18.7
2017-05-11T00:05:04.384Z,18.71
2017-05-11T00:05:32.534Z,18.71
2017-05-11T00:06:00.905Z,18.7
2017-05-11T00:06:29.182Z,18.66
2017-05-11T00:06:57.485Z,18.66
2017-05-11T00:07:25.921Z,18.75
2017-05-11T00:07:54.160Z,18.63
2017-05-11T00:08:22.503Z,18.68
2017-05-11T00:09:33.973Z,18.61
2017-05-11T00:10:02.061Z,18.7
2017-05-11T00:10:30.472Z,18.67
2017-05-11T00:10:58.805Z,18.64
2017-05-11T00:11:27.055Z,18.66
2017-05-11T00:11:55.238Z,18.76
2017-05-11T00:12:23.608Z,18.7
2017-05-11T00:12:52.010Z,18.7
2017-05-11T00:13:20.275Z,18.76
2017-05-11T00:13:48.410Z,18.74
2017-05-11T00:14:16.576Z,18.7
2017-05-11T00:15:27.952Z,18.71
2017-05-11T00:15:56.048Z,18.68
2017-05-11T00:16:24.367Z,18.64
2017-05-11T00:16:52.516Z,18.71
2017-05-11T00:17:20.859Z,18.76
2017-05-11T00:17:49.146Z,18.67
2017-05-11T00:18:17.325Z,18.66
2017-05-11T00:18:45.731Z,18.71
2017-05-11T00:19:14.069Z,18.71
2017-05-11T00:19:42.406Z,18.7
2017-05-11T00:20:10.660Z,18.61
2017-05-11T00:21:22.030Z,18.67
2017-05-11T00:21:50.403Z,18.68
2017-05-11T00:22:18.620Z,18.63
2017-05-11T00:22:46.858Z,18.74
2017-05-11T00:23:15.109Z,18.78
2017-05-11T00:23:43.390Z,18.58
2017-05-11T00:24:11.759Z,18.61
2017-05-11T00:24:40.162Z,18.64
2017-05-11T00:25:08.508Z,18.67
2017-05-11T00:25:36.746Z,18.63
2017-05-11T00:26:05.091Z,18.79
2017-05-11T00:27:16.563Z,18.68
2017-05-11T00:27:44.938Z,18.78
2017-05-11T00:28:13.257Z,18.71
2017-05-11T00:28:41.496Z,18.71
2017-05-11T00:29:09.744Z,18.61
2017-05-11T00:29:38.023Z,18.64
2017-05-11T00:30:06.309Z,18.7
2017-05-11T00:30:34.711Z,18.66
2017-05-11T00:31:03.151Z,18.64
2017-05-11T00:31:31.492Z,18.67
2017-05-11T00:31:59.845Z,18.68
2017-05-11T00:33:11.139Z,18.7
2017-05-11T00:33:39.429Z,18.76
2017-05-11T00:34:07.841Z,18.66
2017-05-11T00:34:36.082Z,18.75
2017-05-11T00:35:04.336Z,18.78
2017-05-11T00:35:32.428Z,18.74
2017-05-11T00:36:00.807Z,18.75
2017-05-11T00:36:29.112Z,18.7
2017-05-11T00:36:57.550Z,18.71
2017-05-11T00:37:25.791Z,18.81
2017-05-11T00:37:54.144Z,18.7
2017-05-11T00:39:05.436Z,18.75
2017-05-11T00:39:33.718Z,18.81
2017-05-11T00:40:02.128Z,18.68
2017-05-11T00:40:30.468Z,18.78
2017-05-11T00:40:58.633Z,18.75
2017-05-11T00:41:26.921Z,18.78
2017-05-11T00:41:55.292Z,18.71
2017-05-11T00:42:23.555Z,18.79
2017-05-11T00:42:51.904Z,18.75
2017-05-11T00:43:20.240Z,18.74
2017-05-11T00:43:48.491Z,18.67
2017-05-11T00:44:59.788Z,18.83
2017-05-11T00:45:27.978Z,18.79
2017-05-11T00:45:56.380Z,18.75
2017-05-11T00:46:24.716Z,18.74
2017-05-11T00:46:52.874Z,18.74
2017-05-11T00:47:21.249Z,18.76
2017-05-11T00:47:49.532Z,18.7
2017-05-11T00:48:17.656Z,18.75
2017-05-11T00:48:46.001Z,18.7
2017-05-11T00:49:14.153Z,18.82
2017-05-11T00:49:42.223Z,18.86
2017-05-11T00:50:53.698Z,18.76
2017-05-11T00:51:22.072Z,18.7
2017-05-11T00:51:50.203Z,18.75
2017-05-11T00:52:18.446Z,18.79
2017-05-11T00:52:46.701Z,18.78
2017-05-11T00:53:15.082Z,18.68
2017-05-11T00:53:43.373Z,18.76
2017-05-11T00:54:11.685Z,18.68
2017-05-11T00:54:40.116Z,18.76
2017-05-11T00:55:08.456Z,18.74
2017-05-11T00:55:36.812Z,18.78
2017-05-11T00:56:48.194Z,18.7
2017-05-11T00:57:16.568Z,18.67
2017-05-11T00:57:44.799Z,18.75
2017-05-11T00:58:13.136Z,18.75
2017-05-11T00:58:41.480Z,18.74
2017-05-11T00:59:09.765Z,18.74
2017-05-11T00:59:38.039Z,18.7
2017-05-11T01:00:06.362Z,18.68
2017-05-11T01:00:34.791Z,18.74
2017-05-11T01:01:03.037Z,18.74
2017-05-11T01:01:31.383Z,18.74
2017-05-11T01:02:42.758Z,18.66
2017-05-11T01:03:10.958Z,18.74
2017-05-11T01:03:39.276Z,18.66
2017-05-11T01:04:07.516Z,18.79
2017-05-11T01:04:35.771Z,18.68
2017-05-11T01:05:04.146Z,18.71
2017-05-11T01:05:32.434Z,18.78
2017-05-11T01:06:00.748Z,18.68
2017-05-11T01:06:29.179Z,18.66
2017-05-11T01:06:57.521Z,18.76
2017-05-11T01:07:25.786Z,18.78
2017-05-11T01:08:37.170Z,18.67
2017-05-11T01:09:05.544Z,18.79
2017-05-11T01:09:33.862Z,18.67
2017-05-11T01:10:02.200Z,18.66
2017-05-11T01:10:30.545Z,18.67
2017-05-11T01:10:58.833Z,18.76
2017-05-11T01:11:27.203Z,18.71
2017-05-11T01:11:55.604Z,18.78
2017-05-11T01:12:24.245Z,18.71
2017-05-11T01:12:52.485Z,18.82
2017-05-11T01:13:20.834Z,18.7
2017-05-11T01:14:32.220Z,18.74
2017-05-11T01:15:00.597Z,18.74
2017-05-11T01:15:29.009Z,18.74
2017-05-11T01:15:57.252Z,18.7
2017-05-11T01:16:25.498Z,18.71
2017-05-11T01:16:53.784Z,18.7
2017-05-11T01:17:22.065Z,18.68
2017-05-11T01:17:50.476Z,18.76
2017-05-11T01:18:18.909Z,18.76
2017-05-11T01:18:47.245Z,18.76
2017-05-11T01:19:15.591Z,18.79
2017-05-11T01:20:26.977Z,18.67
2017-05-11T01:20:55.254Z,18.71
2017-05-11T01:21:23.666Z,18.76
2017-05-11T01:21:51.817Z,18.81
2017-05-11T01:22:20.173Z,18.68
2017-05-11T01:22:48.542Z,18.7
2017-05-11T01:23:16.916Z,18.82
2017-05-11T01:23:45.040Z,18.68
2017-05-11T01:24:13.477Z,18.68
2017-05-11T01:24:41.816Z,18.68
2017-05-11T01:25:10.156Z,18.74
2017-05-11T01:26:21.628Z,18.64
2017-05-11T01:26:50.007Z,18.61
2017-05-11T01:27:18.326Z,18.66
2017-05-11T01:27:46.472Z,18.68
2017-05-11T01:28:14.815Z,18.68
2017-05-11T01:28:43.189Z,18.7
2017-05-11T01:29:11.561Z,18.64
2017-05-11T01:29:39.969Z,18.7
2017-05-11T01:30:08.307Z,18.7
2017-05-11T01:30:36.649Z,18.64
2017-05-11T01:31:04.995Z,18.68
2017-05-11T01:32:16.375Z,18.68
2017-05-11T01:32:44.655Z,18.66
2017-05-11T01:33:13.008Z,18.7
2017-05-11T01:33:41.309Z,18.64
2017-05-11T01:34:09.562Z,18.7
2017-05-11T01:34:37.940Z,18.64
2017-05-11T01:35:06.314Z,18.63
2017-05-11T01:35:34.721Z,18.61
2017-05-11T01:36:03.156Z,18.63
2017-05-11T01:36:31.494Z,18.75
2017-05-11T01:36:59.844Z,18.61
2017-05-11T01:38:11.234Z,18.66
2017-05-11T01:38:39.613Z,18.68
2017-05-11T01:39:08.024Z,18.79
2017-05-11T01:39:36.272Z,18.75
2017-05-11T01:40:04.613Z,18.78
2017-05-11T01:40:32.994Z,18.67
2017-05-11T01:41:01.379Z,18.74
2017-05-11T01:41:29.785Z,18.64
2017-05-11T01:41:58.227Z,18.64
2017-05-11T01:42:26.559Z,18.78
2017-05-11T01:42:54.812Z,18.68
2017-05-11T01:44:06.291Z,18.78
2017-05-11T01:44:34.665Z,18.64
2017-05-11T01:45:02.984Z,18.67
2017-05-11T01:45:31.315Z,18.7
2017-05-11T01:45:59.571Z,18.74
2017-05-11T01:46:27.950Z,18.67
2017-05-11T01:46:56.321Z,18.7
2017-05-11T01:47:24.725Z,18.64
2017-05-11T01:47:53.158Z,18.66
2017-05-11T01:48:21.495Z,18.63
2017-05-11T01:48:49.748Z,18.7
2017-05-11T01:50:01.222Z,18.63
2017-05-11T01:50:29.502Z,18.56
2017-05-11T01:50:57.907Z,18.63
2017-05-11T01:51:26.149Z,18.57
2017-05-11T01:51:54.307Z,18.58
2017-05-11T01:52:22.592Z,18.57
2017-05-11T01:52:50.969Z,18.56
2017-05-11T01:53:19.377Z,18.56
2017-05-11T01:53:47.726Z,18.63
2017-05-11T01:54:16.061Z,18.6
2017-05-11T01:54:44.313Z,18.58
2017-05-11T01:55:55.700Z,18.43
2017-05-11T01:56:24.066Z,18.57
2017-05-11T01:56:52.473Z,18.58
2017-05-11T01:57:20.810Z,18.6
2017-05-11T01:57:49.159Z,18.6
2017-05-11T01:58:17.442Z,18.52
2017-05-11T01:58:45.810Z,18.49
2017-05-11T01:59:14.121Z,18.51
2017-05-11T01:59:42.461Z,18.38
2017-05-11T02:00:10.801Z,18.45
2017-05-11T02:00:39.051Z,18.49
2017-05-11T02:01:50.432Z,18.43
2017-05-11T02:02:18.799Z,18.43
2017-05-11T02:02:47.210Z,18.41
2017-05-11T02:03:15.449Z,18.33
2017-05-11T02:03:43.797Z,18.38
2017-05-11T02:04:12.178Z,18.38
2017-05-11T02:04:40.452Z,18.31
2017-05-11T02:05:08.765Z,18.33
2017-05-11T02:05:37.199Z,18.3
2017-05-11T02:06:05.442Z,18.27
2017-05-11T02:06:33.696Z,18.27
2017-05-11T02:07:45.168Z,18.28
2017-05-11T02:08:13.545Z,18.18
2017-05-11T02:08:41.956Z,18.13
2017-05-11T02:09:10.292Z,18.15
2017-05-11T02:09:38.547Z,18.13
2017-05-11T02:10:06.836Z,18.15
2017-05-11T02:10:35.213Z,18.21
2017-05-11T02:11:03.520Z,18.2
2017-05-11T02:11:31.961Z,18.23
2017-05-11T02:12:00.301Z,18.24
2017-05-11T02:12:28.644Z,18.12
2017-05-11T02:13:40.116Z,18.13
2017-05-11T02:14:08.477Z,18.05
2017-05-11T02:14:36.890Z,18.12
2017-05-11T02:15:05.052Z,18.02
2017-05-11T02:15:33.399Z,18.01
2017-05-11T02:16:01.681Z,18.13
2017-05-11T02:16:29.963Z,18.11
2017-05-11T02:16:58.174Z,18.02
2017-05-11T02:17:26.518Z,18.02
2017-05-11T02:17:54.854Z,17.99
2017-05-11T02:18:23.105Z,18.03
2017-05-11T02:19:34.490Z,18.06
2017-05-11T02:20:02.866Z,18.03
2017-05-11T02:20:31.176Z,17.93
2017-05-11T02:20:59.414Z,18.01
2017-05-11T02:21:27.670Z,18.02
2017-05-11T02:21:56.045Z,17.93
2017-05-11T02:22:24.420Z,18.01
2017-05-11T02:22:52.831Z,18.08
2017-05-11T02:23:21.181Z,17.96
2017-05-11T02:23:49.511Z,17.97
2017-05-11T02:24:17.863Z,18.01
2017-05-11T02:25:29.243Z,18.03
2017-05-11T02:25:57.617Z,17.94
2017-05-11T02:26:25.931Z,17.99
2017-05-11T02:26:54.269Z,17.96
2017-05-11T02:27:22.621Z,17.88
2017-05-11T02:27:50.995Z,17.88
2017-05-11T02:28:19.374Z,17.91
2017-05-11T02:28:47.683Z,17.9
2017-05-11T02:29:16.117Z,17.96
2017-05-11T02:29:44.455Z,17.88
2017-05-11T02:30:12.799Z,17.93
2017-05-11T02:31:24.186Z,17.9
2017-05-11T02:31:52.562Z,17.93
2017-05-11T02:32:20.880Z,17.91
2017-05-11T02:32:49.209Z,17.9
2017-05-11T02:33:17.460Z,17.96
2017-05-11T02:33:45.832Z,17.96
2017-05-11T02:34:14.113Z,17.86
2017-05-11T02:34:42.425Z,17.84
2017-05-11T02:35:10.861Z,17.87
2017-05-11T02:35:39.203Z,17.88
2017-05-11T02:36:07.456Z,17.93
2017-05-11T02:37:18.935Z,17.88
2017-05-11T02:37:47.123Z,17.91
2017-05-11T02:38:15.441Z,17.9
2017-05-11T02:38:43.684Z,17.84
2017-05-11T02:39:11.850Z,17.91
2017-05-11T02:39:40.037Z,17.97
2017-05-11T02:40:08.410Z,17.91
2017-05-11T02:40:36.814Z,17.91
2017-05-11T02:41:05.248Z,17.93
2017-05-11T02:41:33.398Z,17.9
2017-05-11T02:42:01.644Z,17.88
2017-05-11T02:43:13.114Z,17.99
2017-05-11T02:43:41.485Z,17.97
2017-05-11T02:44:09.895Z,17.96
2017-05-11T02:44:38.227Z,17.94
2017-05-11T02:45:06.573Z,17.96
2017-05-11T02:45:34.951Z,17.96
2017-05-11T02:46:03.321Z,17.93
2017-05-11T02:46:31.727Z,17.91
2017-05-11T02:47:00.167Z,17.88
2017-05-11T02:47:28.505Z,17.86
2017-05-11T02:47:56.854Z,17.78
2017-05-11T02:49:08.321Z,17.86
2017-05-11T02:49:36.608Z,17.78
2017-05-11T02:50:04.930Z,17.87
2017-05-11T02:50:33.080Z,17.75
2017-05-11T02:51:01.426Z,17.73
2017-05-11T02:51:29.614Z,17.86
2017-05-11T02:51:57.992Z,17.78
2017-05-11T02:52:26.396Z,17.84
2017-05-11T02:52:54.829Z,17.83
2017-05-11T02:53:23.170Z,17.76
2017-05-11T02:53:51.519Z,17.78
2017-05-11T02:55:02.988Z,17.91
2017-05-11T02:55:31.273Z,17.81
2017-05-11T02:55:59.592Z,17.88
2017-05-11T02:56:27.934Z,17.9
2017-05-11T02:56:56.187Z,17.91
2017-05-11T02:57:24.565Z,17.9
2017-05-11T02:57:52.937Z,17.87
2017-05-11T02:58:21.341Z,17.86
2017-05-11T02:58:49.776Z,17.87
2017-05-11T02:59:18.114Z,17.91
2017-05-11T02:59:46.365Z,17.84
2017-05-11T03:00:57.841Z,17.73
2017-05-11T03:01:26.206Z,17.87
2017-05-11T03:01:54.523Z,17.84
2017-05-11T03:02:22.670Z,17.86
2017-05-11T03:02:51.020Z,17.79
2017-05-11T03:03:19.302Z,17.79
2017-05-11T03:03:47.680Z,17.69
2017-05-11T03:04:16.083Z,17.76
2017-05-11T03:04:44.518Z,17.68
2017-05-11T03:05:12.597Z,17.83
2017-05-11T03:05:40.948Z,17.66
2017-05-11T03:06:52.324Z,17.71
2017-05-11T03:07:20.710Z,17.78
2017-05-11T03:07:49.034Z,17.78
2017-05-11T03:08:17.280Z,17.69
2017-05-11T03:08:45.540Z,17.71
2017-05-11T03:09:13.915Z,17.72
2017-05-11T03:09:42.291Z,17.72
2017-05-11T03:10:10.697Z,17.69
2017-05-11T03:10:39.038Z,17.68
2017-05-11T03:11:07.380Z,17.66
2017-05-11T03:11:35.630Z,17.66
2017-05-11T03:12:47.014Z,17.68
2017-05-11T03:13:15.295Z,17.62
2017-05-11T03:13:43.704Z,17.66
2017-05-11T03:14:12.040Z,17.69
2017-05-11T03:14:40.293Z,17.68
2017-05-11T03:15:08.572Z,17.73
2017-05-11T03:15:36.852Z,17.73
2017-05-11T03:16:05.258Z,17.71
2017-05-11T03:16:33.689Z,17.63
2017-05-11T03:17:02.027Z,17.68
2017-05-11T03:17:30.279Z,17.63
2017-05-11T03:18:41.749Z,17.66
2017-05-11T03:19:10.040Z,17.59
2017-05-11T03:19:38.451Z,17.68
2017-05-11T03:20:06.696Z,17.62
2017-05-11T03:20:34.947Z,17.71
2017-05-11T03:21:03.331Z,17.59
2017-05-11T03:21:31.695Z,17.71
2017-05-11T03:22:00.098Z,17.63
2017-05-11T03:22:28.530Z,17.66
2017-05-11T03:22:56.866Z,17.62
2017-05-11T03:23:25.218Z,17.62
2017-05-11T03:24:36.595Z,17.66
2017-05-11T03:25:04.971Z,17.65
2017-05-11T03:25:33.385Z,17.66
2017-05-11T03:26:01.623Z,17.59
2017-05-11T03:26:29.776Z,17.56
2017-05-11T03:26:57.961Z,17.71
2017-05-11T03:27:26.242Z,17.62
2017-05-11T03:27:54.646Z,17.65
2017-05-11T03:28:23.080Z,17.54
2017-05-11T03:28:51.325Z,17.66
2017-05-11T03:29:19.672Z,17.59
2017-05-11T03:30:31.057Z,17.71
2017-05-11T03:30:59.343Z,17.52
2017-05-11T03:31:27.758Z,17.56
2017-05-11T03:31:55.815Z,17.5
2017-05-11T03:32:24.069Z,17.54
2017-05-11T03:32:52.353Z,17.62
2017-05-11T03:33:20.639Z,17.53
2017-05-11T03:33:49.046Z,17.59
2017-05-11T03:34:17.392Z,17.65
2017-05-11T03:34:45.731Z,17.54
2017-05-11T03:35:13.984Z,17.59
2017-05-11T03:36:25.459Z,17.66
2017-05-11T03:36:53.831Z,17.52
2017-05-11T03:37:22.243Z,17.53
2017-05-11T03:37:50.579Z,17.68
2017-05-11T03:38:18.832Z,17.59
2017-05-11T03:38:47.114Z,17.53
2017-05-11T03:39:15.482Z,17.62
2017-05-11T03:39:43.886Z,17.52
2017-05-11T03:40:12.321Z,17.52
2017-05-11T03:40:40.651Z,17.53
2017-05-11T03:41:08.906Z,17.57
2017-05-11T03:42:20.290Z,17.59
2017-05-11T03:42:48.670Z,17.52
2017-05-11T03:43:16.887Z,17.5
2017-05-11T03:43:45.126Z,17.63
2017-05-11T03:44:13.291Z,17.54
2017-05-11T03:44:41.572Z,17.69
2017-05-11T03:45:09.947Z,17.69
2017-05-11T03:45:38.348Z,17.59
2017-05-11T03:46:06.819Z,17.68
2017-05-11T03:46:35.126Z,17.59
2017-05-11T03:47:03.470Z,17.72
2017-05-11T03:48:14.853Z,17.59
2017-05-11T03:48:43.233Z,17.68
2017-05-11T03:49:11.549Z,17.68
2017-05-11T03:49:39.795Z,17.63
2017-05-11T03:50:08.136Z,17.59
2017-05-11T03:50:36.424Z,17.71
2017-05-11T03:51:04.794Z,17.65
2017-05-11T03:51:33.199Z,17.71
2017-05-11T03:52:01.637Z,17.72
2017-05-11T03:52:29.979Z,17.69
2017-05-11T03:52:58.239Z,17.72
2017-05-11T03:54:09.625Z,17.71
2017-05-11T03:54:37.993Z,17.72
2017-05-11T03:55:06.409Z,17.71
2017-05-11T03:55:34.652Z,17.66
2017-05-11T03:56:02.998Z,17.78
2017-05-11T03:56:31.192Z,17.84
2017-05-11T03:56:59.567Z,17.78
2017-05-11T03:57:27.971Z,17.81
2017-05-11T03:57:56.308Z,17.79
2017-05-11T03:58:24.645Z,17.78
2017-05-11T03:58:52.807Z,17.81
2017-05-11T04:00:04.191Z,17.84
2017-05-11T04:00:32.476Z,17.84
2017-05-11T04:01:00.891Z,17.83
2017-05-11T04:01:29.138Z,17.83
2017-05-11T04:01:57.391Z,17.81
2017-05-11T04:02:25.757Z,17.86
2017-05-11T04:02:54.133Z,17.79
2017-05-11T04:03:22.538Z,17.91
2017-05-11T04:03:50.967Z,17.84
2017-05-11T04:04:19.216Z,17.83
2017-05-11T04:04:47.563Z,17.81
2017-05-11T04:05:59.038Z,17.87
2017-05-11T04:06:27.418Z,17.84
2017-05-11T04:06:55.732Z,17.87
2017-05-11T04:07:23.882Z,17.84
2017-05-11T04:07:52.224Z,17.87
2017-05-11T04:08:20.510Z,17.94
2017-05-11T04:08:48.892Z,17.87
2017-05-11T04:09:17.300Z,17.83
2017-05-11T04:09:45.737Z,17.93
2017-05-11T04:10:14.076Z,17.87
2017-05-11T04:10:42.422Z,17.91
2017-05-11T04:11:53.801Z,17.94
2017-05-11T04:12:22.080Z,17.96
2017-05-11T04:12:50.310Z,17.91
2017-05-11T04:13:18.640Z,17.94
2017-05-11T04:13:46.802Z,17.94
2017-05-11T04:14:14.994Z,17.88
2017-05-11T04:14:43.272Z,17.96
2017-05-11T04:15:11.679Z,17.94
2017-05-11T04:15:40.116Z,17.88
2017-05-11T04:16:08.455Z,17.93
2017-05-11T04:16:36.803Z,17.93
2017-05-11T04:17:48.275Z,17.99
2017-05-11T04:18:16.648Z,17.9
2017-05-11T04:18:44.966Z,17.94
2017-05-11T04:19:13.302Z,17.94
2017-05-11T04:19:41.552Z,17.91
2017-05-11T04:20:09.847Z,17.93
2017-05-11T04:20:38.213Z,17.96
2017-05-11T04:21:06.619Z,17.97
2017-05-11T04:21:35.053Z,17.93
2017-05-11T04:22:03.294Z,17.9
2017-05-11T04:22:31.549Z,17.91
2017-05-11T04:23:43.025Z,17.96
2017-05-11T04:24:11.404Z,18.03
2017-05-11T04:24:39.726Z,17.96
2017-05-11T04:25:07.970Z,17.97
2017-05-11T04:25:36.321Z,17.93
2017-05-11T04:26:04.604Z,17.97
2017-05-11T04:26:32.884Z,17.94
2017-05-11T04:27:01.198Z,17.93
2017-05-11T04:27:29.541Z,18.03
2017-05-11T04:27:57.784Z,17.97
2017-05-11T04:28:26.127Z,17.96
2017-05-11T04:29:37.596Z,18.01
2017-05-11T04:30:05.960Z,17.99
2017-05-11T04:30:34.279Z,18.01
2017-05-11T04:31:02.522Z,17.94
2017-05-11T04:31:30.772Z,18.06
2017-05-11T04:31:59.156Z,17.97
2017-05-11T04:32:27.433Z,17.97
2017-05-11T04:32:55.838Z,18.01
2017-05-11T04:33:24.273Z,17.97
2017-05-11T04:33:52.619Z,18.03
2017-05-11T04:34:20.967Z,17.97
2017-05-11T04:35:32.442Z,18.11
2017-05-11T04:36:00.722Z,17.97
2017-05-11T04:36:29.131Z,18.03
2017-05-11T04:36:57.465Z,18.03
2017-05-11T04:37:25.717Z,17.97
2017-05-11T04:37:54.004Z,18.02
2017-05-11T04:38:22.281Z,17.96
2017-05-11T04:38:50.686Z,17.94
2017-05-11T04:39:19.029Z,18.08
2017-05-11T04:39:47.372Z,18.02
2017-05-11T04:40:15.631Z,17.93
2017-05-11T04:41:27.107Z,18.05
2017-05-11T04:41:55.471Z,18.08
2017-05-11T04:42:23.878Z,18.06
2017-05-11T04:42:52.214Z,18.01
2017-05-11T04:43:20.464Z,17.99
2017-05-11T04:43:48.842Z,18.08
2017-05-11T04:44:17.217Z,18.02
2017-05-11T04:44:45.527Z,18.01
2017-05-11T04:45:13.964Z,17.97
2017-05-11T04:45:42.210Z,18.08
2017-05-11T04:46:10.554Z,17.97
2017-05-11T04:47:22.028Z,18.05
2017-05-11T04:47:50.393Z,17.99
2017-05-11T04:48:18.710Z,18.03
2017-05-11T04:48:46.953Z,18.02
2017-05-11T04:49:15.208Z,18.06
2017-05-11T04:49:43.407Z,18.08
2017-05-11T04:50:11.687Z,17.99
2017-05-11T04:50:40.093Z,18.03
2017-05-11T04:51:08.437Z,17.99
2017-05-11T04:51:36.776Z,18.01
2017-05-11T04:52:05.125Z,17.97
2017-05-11T04:53:16.510Z,18.02
2017-05-11T04:53:44.886Z,18.06
2017-05-11T04:54:13.199Z,18.03
2017-05-11T04:54:41.538Z,18.05
2017-05-11T04:55:09.879Z,18.03
2017-05-11T04:55:38.253Z,18.02
2017-05-11T04:56:06.626Z,18.05
2017-05-11T04:56:34.936Z,18.02
2017-05-11T04:57:03.363Z,18.01
2017-05-11T04:57:31.610Z,18.02
2017-05-11T04:57:59.958Z,18.03
2017-05-11T04:59:11.434Z,17.99
2017-05-11T04:59:39.812Z,18.01
2017-05-11T05:00:08.223Z,17.96
2017-05-11T05:00:36.467Z,18.01
2017-05-11T05:01:04.817Z,18.01
2017-05-11T05:01:33.194Z,17.93
2017-05-11T05:02:01.568Z,17.97
2017-05-11T05:02:29.983Z,18.08
2017-05-11T05:02:58.414Z,18.02
2017-05-11T05:03:26.571Z,17.96
2017-05-11T05:03:54.915Z,17.96
2017-05-11T05:05:06.295Z,17.94
2017-05-11T05:05:34.666Z,17.96
2017-05-11T05:06:03.076Z,17.97
2017-05-11T05:06:31.222Z,17.97
2017-05-11T05:06:59.383Z,17.97
2017-05-11T05:07:27.764Z,17.97
2017-05-11T05:07:56.046Z,17.94
2017-05-11T05:08:24.450Z,18.01
2017-05-11T05:08:52.883Z,17.96
2017-05-11T05:09:21.225Z,17.93
2017-05-11T05:09:49.574Z,18.05
2017-05-11T05:11:01.051Z,17.96
2017-05-11T05:11:29.418Z,18.03
2017-05-11T05:11:57.824Z,17.96
2017-05-11T05:12:26.070Z,17.97
2017-05-11T05:12:54.414Z,18.12
2017-05-11T05:13:22.701Z,17.93
2017-05-11T05:13:50.980Z,18.03
2017-05-11T05:14:19.394Z,18.02
2017-05-11T05:14:47.831Z,18.03
2017-05-11T05:15:16.165Z,18.03
2017-05-11T05:15:44.233Z,17.97
2017-05-11T05:16:55.645Z,17.97
2017-05-11T05:17:23.925Z,17.97
2017-05-11T05:17:52.248Z,18.03
2017-05-11T05:18:20.491Z,18.08
2017-05-11T05:18:48.839Z,18.06
2017-05-11T05:19:17.214Z,18.03
2017-05-11T05:19:45.493Z,18.03
2017-05-11T05:20:13.896Z,18.11
2017-05-11T05:20:42.331Z,18.03
2017-05-11T05:21:10.570Z,18.08
2017-05-11T05:21:38.922Z,18.03
2017-05-11T05:22:50.306Z,18.03
2017-05-11T05:23:18.674Z,18.02
2017-05-11T05:23:47.077Z,17.91
2017-05-11T05:24:15.410Z,17.97
2017-05-11T05:24:43.659Z,17.97
2017-05-11T05:25:11.940Z,18.06
2017-05-11T05:25:40.312Z,18.06
2017-05-11T05:26:08.712Z,18.05
2017-05-11T05:26:37.147Z,17.97
2017-05-11T05:27:05.485Z,17.97
2017-05-11T05:27:33.738Z,17.99
2017-05-11T05:28:45.112Z,18.01
2017-05-11T05:29:13.390Z,17.99
2017-05-11T05:29:41.800Z,18.01
2017-05-11T05:30:10.135Z,17.97
2017-05-11T05:30:38.481Z,17.94
2017-05-11T05:31:06.858Z,17.91
2017-05-11T05:31:35.146Z,17.91
2017-05-11T05:32:03.546Z,17.9
2017-05-11T05:32:31.890Z,17.81
2017-05-11T05:33:00.045Z,17.84
2017-05-11T05:33:28.395Z,17.81
2017-05-11T05:34:39.774Z,17.84
2017-05-11T05:35:08.144Z,17.83
2017-05-11T05:35:36.457Z,17.79
2017-05-11T05:36:04.702Z,17.83
2017-05-11T05:36:32.950Z,17.83
2017-05-11T05:37:01.321Z,17.81
2017-05-11T05:37:29.695Z,17.72
2017-05-11T05:37:58.090Z,17.83
2017-05-11T05:38:26.529Z,17.84
2017-05-11T05:38:54.768Z,17.83
2017-05-11T05:39:23.113Z,17.81
2017-05-11T05:40:34.589Z,17.88
2017-05-11T05:41:02.784Z,17.87
2017-05-11T05:41:31.192Z,17.79
2017-05-11T05:41:59.522Z,17.79
2017-05-11T05:42:27.881Z,17.84
2017-05-11T05:42:56.070Z,17.76
2017-05-11T05:43:24.443Z,17.79
2017-05-11T05:43:52.849Z,17.75
2017-05-11T05:44:21.291Z,17.81
2017-05-11T05:44:49.434Z,17.78
2017-05-11T05:45:17.689Z,17.84
2017-05-11T05:46:29.072Z,17.87
2017-05-11T05:46:57.443Z,17.86
2017-05-11T05:47:25.868Z,17.79
2017-05-11T05:47:54.115Z,17.88
2017-05-11T05:48:22.467Z,17.86
2017-05-11T05:48:50.840Z,17.86
2017-05-11T05:49:19.211Z,17.84
2017-05-11T05:49:47.617Z,17.81
2017-05-11T05:50:15.963Z,17.84
2017-05-11T05:50:44.210Z,17.84
2017-05-11T05:51:12.555Z,17.75
2017-05-11T05:52:23.934Z,17.84
2017-05-11T05:52:52.308Z,17.71
2017-05-11T05:53:20.622Z,17.81
2017-05-11T05:53:48.860Z,17.78
2017-05-11T05:54:17.206Z,17.79
2017-05-11T05:54:45.582Z,17.78
2017-05-11T05:55:13.866Z,17.78
2017-05-11T05:55:42.275Z,17.73
2017-05-11T05:56:10.616Z,17.71
2017-05-11T05:56:38.856Z,17.72
2017-05-11T05:57:07.202Z,17.68
2017-05-11T05:58:18.669Z,17.66
2017-05-11T05:58:47.041Z,17.69
2017-05-11T05:59:15.453Z,17.69
2017-05-11T05:59:43.794Z,17.69
2017-05-11T06:00:12.049Z,17.69
2017-05-11T06:00:40.425Z,17.69
2017-05-11T06:01:08.705Z,17.66
2017-05-11T06:01:37.106Z,17.69
2017-05-11T06:02:05.540Z,17.69
2017-05-11T06:02:33.874Z,17.63
2017-05-11T06:03:02.133Z,17.68
2017-05-11T06:04:13.609Z,17.65
2017-05-11T06:04:41.977Z,17.57
2017-05-11T06:05:10.381Z,17.63
2017-05-11T06:05:38.622Z,17.68
2017-05-11T06:06:06.962Z,17.65
2017-05-11T06:06:35.338Z,17.66
2017-05-11T06:07:03.710Z,17.63
2017-05-11T06:07:32.118Z,17.65
2017-05-11T06:08:00.460Z,17.56
2017-05-11T06:08:28.703Z,17.66
2017-05-11T06:08:57.049Z,17.63
2017-05-11T06:10:08.516Z,17.68
2017-05-11T06:10:36.891Z,17.66
2017-05-11T06:11:05.301Z,17.66
2017-05-11T06:11:33.638Z,17.73
2017-05-11T06:12:01.796Z,17.71
2017-05-11T06:12:30.173Z,17.72
2017-05-11T06:12:58.544Z,17.72
2017-05-11T06:13:26.951Z,17.68
2017-05-11T06:13:55.296Z,17.68
2017-05-11T06:14:23.633Z,17.65
2017-05-11T06:14:51.893Z,17.68
2017-05-11T06:16:03.269Z,17.65
2017-05-11T06:16:31.554Z,17.65
2017-05-11T06:16:59.957Z,17.52
2017-05-11T06:17:28.199Z,17.54
2017-05-11T06:17:56.450Z,17.54
2017-05-11T06:18:24.822Z,17.52
2017-05-11T06:18:53.193Z,17.52
2017-05-11T06:19:21.595Z,17.5
2017-05-11T06:19:49.938Z,17.5
2017-05-11T06:20:18.269Z,17.57
2017-05-11T06:20:46.526Z,17.57
2017-05-11T06:21:57.996Z,17.54
2017-05-11T06:22:26.364Z,17.52
2017-05-11T06:22:54.768Z,17.45
2017-05-11T06:23:23.095Z,17.43
2017-05-11T06:23:51.439Z,17.5
2017-05-11T06:24:19.816Z,17.5
2017-05-11T06:24:48.187Z,17.39
2017-05-11T06:25:16.594Z,17.38
2017-05-11T06:25:45.028Z,17.35
2017-05-11T06:26:13.269Z,17.38
2017-05-11T06:26:41.614Z,17.41
2017-05-11T06:27:53.078Z,17.37
2017-05-11T06:28:21.452Z,17.35
2017-05-11T06:28:49.863Z,17.35
2017-05-11T06:29:18.009Z,17.35
2017-05-11T06:29:46.350Z,17.37
2017-05-11T06:30:14.629Z,17.37
2017-05-11T06:30:43.002Z,17.41
2017-05-11T06:31:11.409Z,17.34
2017-05-11T06:31:39.747Z,17.32
2017-05-11T06:32:07.893Z,17.28
2017-05-11T06:32:36.243Z,17.32
2017-05-11T06:33:47.529Z,17.25
2017-05-11T06:34:15.897Z,17.31
2017-05-11T06:34:44.300Z,17.27
2017-05-11T06:35:12.536Z,17.3
2017-05-11T06:35:40.790Z,17.28
2017-05-11T06:36:09.162Z,17.34
2017-05-11T06:36:37.537Z,17.25
2017-05-11T06:37:05.848Z,17.3
2017-05-11T06:37:34.277Z,17.35
2017-05-11T06:38:02.518Z,17.3
2017-05-11T06:38:30.772Z,17.34
2017-05-11T06:39:42.242Z,17.25
2017-05-11T06:40:10.609Z,17.34
2017-05-11T06:40:39.017Z,17.32
2017-05-11T06:41:07.258Z,17.25
2017-05-11T06:41:35.509Z,17.27
2017-05-11T06:42:03.789Z,17.32
2017-05-11T06:42:31.972Z,17.27
2017-05-11T06:43:00.375Z,17.28
2017-05-11T06:43:28.718Z,17.31
2017-05-11T06:43:56.873Z,17.27
2017-05-11T06:44:25.217Z,17.28
2017-05-11T06:45:36.508Z,17.28
2017-05-11T06:46:04.879Z,17.22
2017-05-11T06:46:33.288Z,17.17
2017-05-11T06:47:01.533Z,17.2
2017-05-11T06:47:29.877Z,17.24
2017-05-11T06:47:58.154Z,17.25
2017-05-11T06:48:26.346Z,17.31
2017-05-11T06:48:54.752Z,17.25
2017-05-11T06:49:23.094Z,17.3
2017-05-11T06:49:51.432Z,17.31
2017-05-11T06:50:19.688Z,17.27
2017-05-11T06:51:31.158Z,17.22
2017-05-11T06:51:59.524Z,17.22
2017-05-11T06:52:27.841Z,17.27
2017-05-11T06:52:56.077Z,17.32
2017-05-11T06:53:24.420Z,17.27
2017-05-11T06:53:52.791Z,17.25
2017-05-11T06:54:21.073Z,17.24
2017-05-11T06:54:49.472Z,17.16
2017-05-11T06:55:17.906Z,17.22
2017-05-11T06:55:46.057Z,17.27